Time;durP1;ratioP1;P1;durP2;ratioP2;P2;SDS_P1;SDS_P2;PMS_P1;PMS_P2;Temp;Humidity;BMP_temperature;BMP_pressure;BME280_temperature;BME280_humidity;BME280_pressure;Samples;Min_cycle;Max_cycle;Signal;HPM_P1;HPM_P2
2022/12/04 00:01:24;;;;;;;79.57;50.58;;;;;;;0.01;99.28;101728.53;5027607;28;20091;-76
2022/12/04 00:03:54;;;;;;;85.40;51.50;;;;;;;0.02;98.96;101719.91;5011545;28;20021;-76
2022/12/04 00:06:23;;;;;;;82.22;50.35;;;;;;;-0.03;98.89;101720.81;5023309;28;20410;-76
2022/12/04 00:08:49;;;;;;;81.35;50.70;;;;;;;-0.02;99.16;101714.75;5012209;28;20504;-76
2022/12/04 00:11:19;;;;;;;85.43;52.03;;;;;;;-0.02;99.37;101724.25;5029007;28;20096;-77
2022/12/04 00:13:44;;;;;;;82.32;50.28;;;;;;;-0.02;99.62;101709.56;5011873;28;20083;-77
2022/12/04 00:16:12;;;;;;;85.53;52.63;;;;;;;-0.04;99.40;101710.47;5011513;28;20029;-77
2022/12/04 00:18:38;;;;;;;82.00;50.88;;;;;;;0.01;99.44;101713.88;5025587;28;20713;-77
2022/12/04 00:21:05;;;;;;;82.35;51.42;;;;;;;0.02;99.72;101710.41;5029703;28;20480;-77
2022/12/04 00:23:31;;;;;;;82.55;51.47;;;;;;;0.02;99.80;101706.97;5029278;28;20018;-77
2022/12/04 00:26:06;;;;;;;83.57;51.97;;;;;;;0.00;99.28;101704.41;5015682;28;20577;-77
2022/12/04 00:28:35;;;;;;;86.93;52.38;;;;;;;0.02;99.77;101709.56;5033412;28;20025;-77
2022/12/04 00:31:05;;;;;;;79.32;50.40;;;;;;;-0.01;99.64;101703.53;5015885;28;20021;-77
2022/12/04 00:33:31;;;;;;;84.07;52.92;;;;;;;0.01;99.93;101702.69;5032727;28;20041;-77
2022/12/04 00:35:57;;;;;;;84.63;51.17;;;;;;;0.01;99.92;101713.88;5011643;28;20029;-78
2022/12/04 00:38:23;;;;;;;85.88;52.15;;;;;;;-0.02;99.26;101709.56;5013957;28;20040;-75
2022/12/04 00:40:50;;;;;;;85.53;51.25;;;;;;;-0.06;99.59;101707.91;5015067;28;20018;-75
2022/12/04 00:43:15;;;;;;;80.38;49.95;;;;;;;-0.03;99.71;101707.00;5033315;28;20104;-76
2022/12/04 00:45:41;;;;;;;82.72;50.92;;;;;;;-0.03;99.57;101700.09;5015098;28;20120;-75
2022/12/04 00:48:06;;;;;;;83.18;51.63;;;;;;;-0.01;100.00;101698.34;5032292;28;20136;-76
2022/12/04 00:50:32;;;;;;;82.75;50.63;;;;;;;-0.06;99.88;101702.75;5014629;28;20029;-76
2022/12/04 00:52:57;;;;;;;83.68;50.88;;;;;;;-0.04;99.99;101694.97;5026323;28;20193;-76
2022/12/04 00:55:23;;;;;;;86.70;52.17;;;;;;;-0.07;99.56;101706.22;5014385;28;20021;-76
2022/12/04 00:57:48;;;;;;;83.57;51.80;;;;;;;-0.07;99.63;101700.19;5015375;28;20030;-76
2022/12/04 01:00:17;;;;;;;81.03;51.15;;;;;;;-0.06;100.00;101699.31;5032396;28;20056;-76
2022/12/04 01:02:43;;;;;;;81.63;51.28;;;;;;;-0.05;100.00;101704.44;5014354;28;20367;-76
2022/12/04 01:05:11;;;;;;;84.05;52.53;;;;;;;-0.07;100.00;101705.34;5032952;28;20028;-76
2022/12/04 01:07:37;;;;;;;32.72;11.00;;;;;;;-0.02;100.00;101712.16;5009660;28;20021;-76
2022/12/04 01:10:05;;;;;;;41.70;13.32;;;;;;;-0.03;99.47;101713.03;5032687;28;20535;-77
2022/12/04 01:12:35;;;;;;;84.45;52.30;;;;;;;-0.06;99.97;101714.81;5032085;28;20049;-77
2022/12/04 01:15:01;;;;;;;82.38;51.65;;;;;;;-0.04;100.00;101711.34;5014586;28;20501;-77
2022/12/04 01:17:27;;;;;;;83.53;51.47;;;;;;;-0.03;100.00;101715.63;5032496;28;20025;-77
2022/12/04 01:19:52;;;;;;;82.15;50.92;;;;;;;-0.05;99.97;101708.78;5031087;28;20022;-76
2022/12/04 01:22:20;;;;;;;84.03;53.30;;;;;;;-0.03;99.88;101713.03;5023276;28;20029;-77
2022/12/04 01:24:46;;;;;;;84.60;50.85;;;;;;;-0.06;99.68;101717.41;5015087;28;20018;-77
2022/12/04 01:27:11;;;;;;;81.93;51.13;;;;;;;-0.04;100.00;101721.69;5014319;28;20175;-76
2022/12/04 01:29:37;;;;;;;84.40;52.38;;;;;;;-0.03;100.00;101723.38;5010610;28;20037;-75
2022/12/04 01:32:05;;;;;;;81.50;51.50;;;;;;;-0.04;100.00;101720.81;4995115;28;20030;-76
2022/12/04 01:34:31;;;;;;;82.22;51.13;;;;;;;-0.02;100.00;101716.47;4998237;28;20124;-76
2022/12/04 01:36:56;;;;;;;78.38;50.00;;;;;;;0.00;100.00;101722.50;5013151;28;20430;-75
2022/12/04 01:39:21;;;;;;;78.38;51.65;;;;;;;0.01;99.94;101718.19;5013991;28;20864;-75
2022/12/04 01:41:47;;;;;;;81.15;51.58;;;;;;;-0.01;99.83;101716.44;5014379;28;20035;-77
2022/12/04 01:44:19;;;;;;;80.07;51.55;;;;;;;0.01;100.00;101718.19;5030706;28;20513;-76
2022/12/04 01:46:49;;;;;;;78.90;51.10;;;;;;;-0.02;99.83;101714.75;5032024;28;20041;-77
2022/12/04 01:49:20;;;;;;;80.93;51.20;;;;;;;-0.04;99.73;101711.34;5032035;28;20029;-76
2022/12/04 01:51:50;;;;;;;80.40;50.47;;;;;;;-0.03;100.00;101705.28;5031523;28;20061;-75
2022/12/04 01:54:21;;;;;;;80.60;51.47;;;;;;;-0.04;99.88;101701.00;5012508;28;20037;-76
2022/12/04 01:56:52;;;;;;;79.80;51.17;;;;;;;-0.04;99.68;101705.31;5005247;28;20397;-76
2022/12/04 01:59:23;;;;;;;79.18;52.05;;;;;;;-0.06;100.00;101701.88;5031444;28;20051;-76
2022/12/04 02:01:55;;;;;;;78.03;51.17;;;;;;;-0.04;99.73;101701.00;5014154;28;20013;-76
2022/12/04 02:04:20;;;;;;;80.13;52.58;;;;;;;-0.05;99.47;101693.25;5013218;28;20386;-76
2022/12/04 02:06:46;;;;;;;80.55;50.70;;;;;;;-0.06;99.50;101702.75;5032065;28;20022;-77
2022/12/04 02:09:11;;;;;;;50.35;16.00;;;;;;;0.03;99.84;101696.59;5009897;28;20037;-77
2022/12/04 02:11:45;;;;;;;79.32;51.53;;;;;;;-0.05;100.00;101704.44;5019788;28;20036;-77
2022/12/04 02:14:44;;;;;;;80.63;50.83;;;;;;;0.02;99.78;101691.44;5028977;28;20029;-76
2022/12/04 02:17:31;;;;;;;78.55;51.80;;;;;;;0.01;100.00;101689.75;5031252;28;20021;-80
2022/12/04 02:20:25;;;;;;;80.28;51.80;;;;;;;0.01;99.88;101693.19;5020192;28;20044;-79
2022/12/04 02:22:56;;;;;;;77.05;51.50;;;;;;;-0.03;100.00;101692.34;5022775;28;20041;-79
2022/12/04 02:25:46;;;;;;;76.05;50.28;;;;;;;0.01;99.16;101694.91;5030364;28;20354;-76
2022/12/04 02:28:24;;;;;;;78.90;50.92;;;;;;;-0.05;99.83;101696.69;5012920;28;20026;-77
2022/12/04 02:30:55;;;;;;;80.07;51.40;;;;;;;-0.05;100.00;101699.28;5016367;28;20030;-77
2022/12/04 02:33:38;;;;;;;80.22;51.00;;;;;;;-0.03;99.64;101700.09;5009046;28;20060;-77
2022/12/04 02:36:15;;;;;;;77.68;51.25;;;;;;;-0.05;99.64;101693.25;5015695;28;20162;-77
2022/12/04 02:38:46;;;;;;;78.03;50.67;;;;;;;-0.04;100.00;101694.97;5013326;28;20107;-77
2022/12/04 02:41:30;;;;;;;76.20;50.67;;;;;;;-0.05;99.53;101694.09;5030687;28;20029;-78
2022/12/04 02:44:28;;;;;;;78.70;52.17;;;;;;;-0.05;99.77;101693.25;5031247;28;20514;-78
2022/12/04 02:46:58;;;;;;;76.53;52.60;;;;;;;-0.06;99.80;101692.41;5026611;28;20509;-77
2022/12/04 02:49:31;;;;;;;77.05;53.00;;;;;;;-0.05;100.00;101695.84;5029943;28;20032;-77
2022/12/04 02:51:59;;;;;;;79.15;52.63;;;;;;;-0.03;99.94;101697.53;5031114;28;20478;-77
2022/12/04 02:54:38;;;;;;;79.65;52.30;;;;;;;-0.04;99.75;101693.22;5029516;28;20033;-77
2022/12/04 02:57:10;;;;;;;74.68;51.20;;;;;;;-0.06;99.39;101682.06;5030484;28;20022;-78
2022/12/04 02:59:47;;;;;;;76.97;51.42;;;;;;;-0.04;99.43;101682.03;5030922;28;20099;-78
2022/12/04 03:02:36;;;;;;;76.38;51.50;;;;;;;-0.09;99.59;101676.94;5011656;28;20585;-78
2022/12/04 03:05:08;;;;;;;77.55;51.50;;;;;;;-0.05;99.77;101680.31;5019925;28;20425;-78
2022/12/04 03:07:40;;;;;;;80.35;52.45;;;;;;;-0.03;99.66;101675.97;5011893;28;20057;-78
2022/12/04 03:10:11;;;;;;;78.63;51.17;;;;;;;-0.03;99.58;101675.97;5030720;28;20057;-78
2022/12/04 03:12:49;;;;;;;80.60;53.28;;;;;;;-0.04;99.28;101682.88;5030606;28;20508;-79
2022/12/04 03:15:22;;;;;;;81.10;53.08;;;;;;;-0.07;99.39;101677.75;5008413;28;20451;-79
2022/12/04 03:18:04;;;;;;;85.03;53.60;;;;;;;-0.05;99.94;101680.31;5010290;28;20439;-77
2022/12/04 03:20:38;;;;;;;46.72;14.30;;;;;;;0.00;99.28;101675.94;5020134;28;20072;-77
2022/12/04 03:23:19;;;;;;;78.82;53.13;;;;;;;-0.05;99.30;101683.75;5011710;28;20029;-77
2022/12/04 03:26:08;;;;;;;80.30;53.10;;;;;;;-0.05;99.77;101678.59;5012789;28;20460;-77
2022/12/04 03:28:46;;;;;;;80.70;53.22;;;;;;;-0.06;99.64;101682.06;5011342;28;20025;-77
2022/12/04 03:31:25;;;;;;;79.43;54.58;;;;;;;-0.05;99.36;101678.59;5009729;28;20018;-77
2022/12/04 03:33:57;;;;;;;80.30;54.42;;;;;;;-0.07;98.77;101677.75;5009453;28;20096;-77
2022/12/04 03:36:33;;;;;;;80.40;54.30;;;;;;;-0.07;99.65;101669.16;5021659;28;20068;-77
2022/12/04 03:39:29;;;;;;;78.47;53.63;;;;;;;-0.05;99.13;101676.00;4992767;28;20573;-78
2022/12/04 03:42:11;;;;;;;80.93;54.60;;;;;;;-0.06;99.08;101666.53;5006068;28;20037;-78
2022/12/04 03:44:45;;;;;;;81.35;54.15;;;;;;;-0.06;99.88;101668.28;5012194;28;20434;-77
2022/12/04 03:47:16;;;;;;;81.55;54.15;;;;;;;-0.05;99.73;101667.38;5029599;28;20024;-77
2022/12/04 03:50:08;;;;;;;82.30;54.20;;;;;;;-0.03;99.66;101670.81;5011241;28;20034;-77
2022/12/04 03:52:57;;;;;;;82.40;55.72;;;;;;;-0.04;99.79;101659.59;5029041;28;20100;-79
2022/12/04 03:55:33;;;;;;;81.95;55.67;;;;;;;-0.06;99.22;101661.38;5010056;28;20037;-77
2022/12/04 03:58:05;;;;;;;80.68;53.22;;;;;;;-0.06;99.43;101661.38;5008207;28;20026;-77
2022/12/04 04:00:33;;;;;;;80.72;54.72;;;;;;;-0.07;99.63;101657.06;5028372;28;20025;-77
2022/12/04 04:03:05;;;;;;;85.65;55.63;;;;;;;-0.05;99.59;101655.31;5029749;28;20110;-77
2022/12/04 04:05:33;;;;;;;;;;;;;;;0.02;99.24;101657.81;5028986;28;20496;-76
2022/12/04 04:10:49;;;;;;;82.80;55.17;;;;;;;-0.05;99.52;101659.63;5018520;28;20057;-78
2022/12/04 04:24:43;;;;;;;83.55;55.97;;;;;;;-0.08;99.55;101668.28;5029057;28;20138;-78
2022/12/04 04:27:09;;;;;;;82.63;55.38;;;;;;;-0.10;99.94;101664.03;5021379;28;20038;-77
2022/12/04 04:29:34;;;;;;;84.78;57.00;;;;;;;-0.10;99.94;101658.84;5008525;28;20033;-77
2022/12/04 04:32:17;;;;;;;84.28;55.97;;;;;;;-0.08;99.86;101660.53;5019129;28;20033;-77
2022/12/04 04:34:55;;;;;;;82.10;54.58;;;;;;;-0.06;99.83;101657.94;5014728;28;20044;-77
2022/12/04 04:37:32;;;;;;;79.80;55.10;;;;;;;-0.08;100.00;101652.78;5005738;28;20041;-77
2022/12/04 04:40:35;;;;;;;82.85;55.40;;;;;;;-0.02;100.00;101652.66;5010976;28;20029;-77
2022/12/04 04:43:10;;;;;;;80.80;53.75;;;;;;;-0.08;100.00;101657.09;5002094;28;20171;-77
2022/12/04 04:45:44;;;;;;;55.72;17.92;;;;;;;-0.02;99.32;101660.44;5016550;28;20048;-77
2022/12/04 04:48:21;;;;;;;84.88;54.72;;;;;;;-0.04;100.00;101658.75;5009717;28;20029;-77
2022/12/04 04:50:49;;;;;;;85.07;55.67;;;;;;;-0.05;99.68;101662.22;5017909;28;20406;-76
2022/12/04 04:53:25;;;;;;;79.68;55.40;;;;;;;-0.04;99.63;101666.50;5028229;28;20030;-77
2022/12/04 04:55:51;;;;;;;83.35;56.30;;;;;;;-0.04;100.00;101664.78;5029170;28;20037;-77
2022/12/04 04:58:19;;;;;;;82.63;55.17;;;;;;;-0.04;100.00;101663.91;5027879;28;20438;-77
2022/12/04 05:01:04;;;;;;;82.63;56.10;;;;;;;-0.03;100.00;101666.47;5011507;28;20032;-77
2022/12/04 05:03:31;;;;;;;81.47;55.67;;;;;;;-0.03;99.65;101668.22;5024557;28;20531;-77
2022/12/04 05:05:56;;;;;;;80.82;55.38;;;;;;;-0.04;99.80;101679.44;5029305;28;20485;-76
2022/12/04 05:08:22;;;;;;;81.53;55.83;;;;;;;-0.06;99.68;101671.72;5008405;28;20116;-77
2022/12/04 05:10:47;;;;;;;82.70;55.28;;;;;;;-0.01;100.00;101664.72;5013033;28;20033;-76
2022/12/04 05:13:16;;;;;;;80.05;54.47;;;;;;;0.01;100.00;101666.47;5014115;28;20049;-76
2022/12/04 05:15:42;;;;;;;79.00;54.45;;;;;;;0.02;99.69;101669.03;5012463;28;20026;-77
2022/12/04 05:18:08;;;;;;;81.40;54.22;;;;;;;-0.01;99.38;101664.72;4997569;28;20495;-76
2022/12/04 05:20:37;;;;;;;82.90;55.95;;;;;;;0.01;100.00;101669.91;5026938;28;20021;-76
2022/12/04 05:23:03;;;;;;;83.03;55.58;;;;;;;0.03;99.88;101665.56;5018104;28;20048;-76
2022/12/04 05:25:31;;;;;;;79.65;54.83;;;;;;;0.01;99.51;101666.47;5014189;28;20053;-77
2022/12/04 05:27:57;;;;;;;80.47;54.17;;;;;;;-0.01;99.79;101663.88;5031817;28;20044;-76
2022/12/04 05:30:24;;;;;;;82.70;53.88;;;;;;;0.01;99.80;101669.03;5013980;28;20021;-76
2022/12/04 05:32:50;;;;;;;82.47;55.47;;;;;;;0.02;100.00;101673.34;5028983;28;20076;-76
2022/12/04 05:35:18;;;;;;;83.63;55.65;;;;;;;-0.01;100.00;101664.72;4993927;28;20065;-76
2022/12/04 05:37:44;;;;;;;81.57;54.45;;;;;;;-0.02;99.70;101663.00;5030606;28;20033;-76
2022/12/04 05:40:10;;;;;;;81.28;55.38;;;;;;;0.00;100.00;101665.59;5014020;28;20033;-77
2022/12/04 05:42:36;;;;;;;81.55;56.30;;;;;;;0.01;100.00;101654.38;5031622;28;20029;-77
2022/12/04 05:45:01;;;;;;;83.07;55.58;;;;;;;0.02;99.92;101661.25;5032529;28;20108;-77
2022/12/04 05:47:29;;;;;;;84.68;55.20;;;;;;;0.01;99.94;101651.78;5013962;28;20124;-77
2022/12/04 05:49:55;;;;;;;80.40;54.42;;;;;;;0.00;100.00;101650.09;5021480;28;20057;-77
2022/12/04 05:52:20;;;;;;;81.40;54.50;;;;;;;0.01;99.82;101645.75;5029861;28;20116;-77
2022/12/04 05:54:49;;;;;;;80.03;55.13;;;;;;;0.01;100.00;101645.75;5014066;28;20017;-78
2022/12/04 05:57:14;;;;;;;83.53;56.15;;;;;;;0.02;100.00;101652.66;5013196;28;20048;-78
2022/12/04 05:59:42;;;;;;;82.10;55.55;;;;;;;-0.01;100.00;101645.75;5031607;28;20030;-78
2022/12/04 06:02:08;;;;;;;83.63;55.88;;;;;;;0.02;100.00;101647.47;5031889;28;20021;-79
2022/12/04 06:04:33;;;;;;;81.03;55.50;;;;;;;0.01;100.00;101646.63;5030754;28;20043;-79
2022/12/04 06:06:58;;;;;;;81.68;55.17;;;;;;;0.02;100.00;101642.28;5012962;28;20559;-78
2022/12/04 06:09:24;;;;;;;81.18;55.10;;;;;;;0.01;100.00;101640.59;5012991;28;20500;-78
2022/12/04 06:11:49;;;;;;;80.30;53.90;;;;;;;0.00;100.00;101639.75;5030778;28;20029;-77
2022/12/04 06:14:15;;;;;;;81.57;55.53;;;;;;;-0.02;100.00;101637.16;5031318;28;20033;-77
2022/12/04 06:16:45;;;;;;;83.78;56.05;;;;;;;-0.02;100.00;101631.97;5013154;28;20501;-77
2022/12/04 06:19:13;;;;;;;82.15;54.60;;;;;;;-0.01;100.00;101645.75;5030574;28;20100;-77
2022/12/04 06:21:40;;;;;;;85.68;55.70;;;;;;;-0.02;100.00;101642.31;5030147;28;20033;-77
2022/12/04 06:24:07;;;;;;;86.45;58.30;;;;;;;-0.01;100.00;101644.03;5028451;28;20103;-77
2022/12/04 06:26:32;;;;;;;86.10;56.00;;;;;;;0.01;100.00;101645.75;5011737;28;20082;-78
2022/12/04 06:29:01;;;;;;;84.95;56.28;;;;;;;-0.01;100.00;101648.34;5031273;28;20029;-77
2022/12/04 06:31:28;;;;;;;83.95;55.15;;;;;;;0.01;100.00;101645.75;5029867;28;20079;-76
2022/12/04 06:33:57;;;;;;;84.07;55.50;;;;;;;-0.02;100.00;101652.66;5013024;28;20140;-77
2022/12/04 06:36:23;;;;;;;82.38;54.60;;;;;;;0.02;100.00;101652.66;5012662;28;20059;-77
2022/12/04 06:38:54;;;;;;;86.07;57.33;;;;;;;0.01;100.00;101649.19;5029936;28;20384;-77
2022/12/04 06:41:24;;;;;;;83.30;55.35;;;;;;;0.03;100.00;101660.38;4997312;28;20394;-77
2022/12/04 06:43:56;;;;;;;85.43;55.45;;;;;;;0.01;100.00;101656.97;5004771;28;20520;-77
2022/12/04 06:46:24;;;;;;;81.25;53.88;;;;;;;0.03;100.00;101649.19;5029757;28;20483;-77
2022/12/04 06:48:50;;;;;;;85.40;56.28;;;;;;;0.04;100.00;101650.88;5013561;28;20017;-77
2022/12/04 06:51:19;;;;;;;86.45;56.35;;;;;;;0.03;100.00;101654.34;5012829;28;20021;-77
2022/12/04 06:53:45;;;;;;;83.60;56.50;;;;;;;0.04;100.00;101650.88;5012072;28;20033;-77
2022/12/04 06:56:15;;;;;;;82.07;54.67;;;;;;;0.06;100.00;101654.28;5013025;28;20032;-78
2022/12/04 06:58:40;;;;;;;85.07;56.50;;;;;;;0.06;100.00;101655.16;5011862;28;20036;-77
2022/12/04 07:01:09;;;;;;;82.78;55.35;;;;;;;0.06;100.00;101665.50;5028630;28;20025;-77
2022/12/04 07:03:35;;;;;;;80.32;55.13;;;;;;;0.06;100.00;101664.63;5012877;28;20022;-78
2022/12/04 07:06:23;;;;;;;85.15;56.22;;;;;;;0.06;100.00;101669.81;5030772;28;20098;-77
2022/12/04 07:08:57;;;;;;;81.65;55.53;;;;;;;0.07;100.00;101668.94;5030437;28;20095;-77
2022/12/04 07:11:23;;;;;;;81.18;54.70;;;;;;;0.08;100.00;101661.16;4992533;28;20483;-77
2022/12/04 07:13:49;;;;;;;83.50;55.70;;;;;;;0.07;100.00;101668.94;5010194;28;20061;-77
2022/12/04 07:16:20;;;;;;;81.65;55.92;;;;;;;0.09;100.00;101669.75;5012244;28;20744;-77
2022/12/04 07:18:49;;;;;;;79.53;54.72;;;;;;;0.08;100.00;101676.66;5011661;28;20045;-77
2022/12/04 07:21:17;;;;;;;77.70;54.03;;;;;;;0.08;100.00;101674.09;5011840;28;20029;-77
2022/12/04 07:23:44;;;;;;;85.07;55.75;;;;;;;0.09;100.00;101686.13;5009035;28;20056;-77
2022/12/04 07:26:14;;;;;;;79.93;54.20;;;;;;;0.08;100.00;101692.19;5030218;28;20436;-77
2022/12/04 07:28:40;;;;;;;80.70;53.58;;;;;;;0.10;100.00;101681.81;5011209;28;20032;-77
2022/12/04 07:31:09;;;;;;;76.82;52.03;;;;;;;0.10;100.00;101689.56;5029197;28;20120;-77
2022/12/04 07:33:34;;;;;;;80.43;53.47;;;;;;;0.11;100.00;101678.34;5018389;28;20041;-77
2022/12/04 07:36:03;;;;;;;80.32;53.80;;;;;;;0.11;100.00;101684.38;5029473;28;20478;-77
2022/12/04 07:38:29;;;;;;;73.47;52.25;;;;;;;0.10;100.00;101689.56;5020392;28;20025;-77
2022/12/04 07:40:56;;;;;;;77.50;51.97;;;;;;;0.09;100.00;101677.53;5011984;28;20044;-77
2022/12/04 07:43:22;;;;;;;80.00;54.03;;;;;;;0.10;100.00;101681.81;5023505;28;20026;-77
2022/12/04 07:45:47;;;;;;;74.65;52.28;;;;;;;0.12;100.00;101682.63;4991095;28;20026;-77
2022/12/04 07:48:13;;;;;;;71.35;50.75;;;;;;;0.11;100.00;101689.53;5009158;28;20037;-77
2022/12/04 07:50:38;;;;;;;71.80;50.30;;;;;;;0.11;100.00;101694.72;5000592;28;20026;-76
2022/12/04 07:53:03;;;;;;;72.80;50.47;;;;;;;0.12;100.00;101693.00;5028295;28;20489;-79
2022/12/04 07:55:28;;;;;;;71.07;49.40;;;;;;;0.14;100.00;101688.63;5028441;28;20498;-77
2022/12/04 07:57:54;;;;;;;72.40;49.53;;;;;;;0.14;100.00;101686.06;5029681;28;20033;-77
2022/12/04 08:00:19;;;;;;;70.00;49.78;;;;;;;0.14;100.00;101689.50;5029249;28;20017;-77
2022/12/04 08:02:44;;;;;;;68.38;48.63;;;;;;;0.16;100.00;101692.06;5024161;28;20022;-78
2022/12/04 08:05:10;;;;;;;70.28;49.03;;;;;;;0.17;100.00;101701.53;5010105;28;20076;-77
2022/12/04 08:07:35;;;;;;;68.30;47.85;;;;;;;0.16;100.00;101698.09;5011065;28;20025;-77
2022/12/04 08:10:01;;;;;;;69.47;48.95;;;;;;;0.20;100.00;101698.88;5011964;28;20056;-77
2022/12/04 08:12:26;;;;;;;68.90;47.80;;;;;;;0.20;100.00;101688.53;4998526;28;20053;-77
2022/12/04 08:14:51;;;;;;;70.53;49.00;;;;;;;0.20;100.00;101704.91;5029613;28;20100;-77
2022/12/04 08:17:17;;;;;;;65.53;47.97;;;;;;;0.24;100.00;101703.13;5028639;28;20029;-77
2022/12/04 08:19:42;;;;;;;67.20;47.90;;;;;;;0.24;100.00;101700.53;5029517;28;20028;-77
2022/12/04 08:22:08;;;;;;;66.88;47.45;;;;;;;0.29;100.00;101703.88;5029318;28;20118;-77
2022/12/04 08:24:34;;;;;;;64.05;46.20;;;;;;;0.29;100.00;101709.06;5028620;28;20026;-77
2022/12/04 08:27:00;;;;;;;67.30;47.10;;;;;;;0.30;99.97;101716.78;5029143;28;20025;-77
2022/12/04 08:29:25;;;;;;;67.07;46.55;;;;;;;0.30;99.80;101710.78;5028670;28;20420;-76
2022/12/04 08:31:50;;;;;;;61.45;45.42;;;;;;;0.31;100.00;101715.06;5028874;28;20116;-77
2022/12/04 08:34:15;;;;;;;62.28;44.75;;;;;;;0.33;100.00;101710.72;5028999;28;20033;-77
2022/12/04 08:36:41;;;;;;;59.67;44.63;;;;;;;0.37;100.00;101698.56;5029253;28;20029;-78
2022/12/04 08:39:07;;;;;;;59.88;43.80;;;;;;;0.37;99.44;101702.00;5029027;28;20534;-77
2022/12/04 08:41:32;;;;;;;59.38;42.42;;;;;;;0.38;99.34;101702.84;5029407;28;20083;-77
2022/12/04 08:43:58;;;;;;;57.13;41.83;;;;;;;0.38;99.04;101697.69;5012049;28;20497;-77
2022/12/04 08:46:25;;;;;;;58.47;42.22;;;;;;;0.39;99.13;101704.56;5031934;28;20036;-77
2022/12/04 08:48:52;;;;;;;56.33;41.78;;;;;;;0.40;99.37;101701.97;5033455;28;20028;-77
2022/12/04 08:51:21;;;;;;;54.53;40.33;;;;;;;0.41;98.45;101697.66;5032811;28;20112;-77
2022/12/04 08:53:46;;;;;;;54.97;41.50;;;;;;;0.43;98.79;101696.75;5014900;28;20026;-77
2022/12/04 08:56:12;;;;;;;58.38;40.67;;;;;;;0.45;98.24;101697.56;5010728;28;20022;-77
2022/12/04 08:58:37;;;;;;;53.10;39.88;;;;;;;0.47;98.31;101693.22;5032385;28;20386;-76
2022/12/04 09:01:08;;;;;;;53.58;39.80;;;;;;;0.48;98.23;101700.09;5032380;28;20111;-77
2022/12/04 09:03:33;;;;;;;51.85;39.13;;;;;;;0.49;98.33;101696.63;5032932;28;20045;-77
2022/12/04 09:06:00;;;;;;;54.10;39.47;;;;;;;0.50;98.34;101690.56;5032748;28;20060;-77
2022/12/04 09:08:25;;;;;;;50.30;37.90;;;;;;;0.54;97.50;101689.63;5032447;28;20029;-78
2022/12/04 09:10:51;;;;;;;58.75;38.10;;;;;;;0.56;97.64;101689.59;5033437;28;20036;-77
2022/12/04 09:13:16;;;;;;;49.05;37.67;;;;;;;0.57;97.30;101688.72;5008692;28;20072;-76
2022/12/04 09:15:41;;;;;;;51.08;37.78;;;;;;;0.57;96.94;101701.66;5032724;28;20516;-76
2022/12/04 09:18:08;;;;;;;48.75;37.67;;;;;;;0.57;97.56;101694.75;5014997;28;20030;-76
2022/12/04 09:20:34;;;;;;;47.92;36.35;;;;;;;0.61;96.73;101696.38;5025939;28;20025;-76
2022/12/04 09:23:00;;;;;;;47.03;35.78;;;;;;;0.63;96.37;101698.94;5032899;28;20018;-76
2022/12/04 09:25:26;;;;;;;47.85;35.67;;;;;;;0.60;96.98;101702.44;5014177;28;20029;-76
2022/12/04 09:27:51;;;;;;;48.08;35.95;;;;;;;0.63;95.99;101699.81;5031848;28;20032;-77
2022/12/04 09:30:16;;;;;;;49.80;37.08;;;;;;;0.66;96.77;101708.38;5013560;28;20116;-77
2022/12/04 09:32:42;;;;;;;47.25;35.15;;;;;;;0.66;96.20;101704.06;5007578;28;20029;-77
2022/12/04 09:35:07;;;;;;;48.85;35.67;;;;;;;0.69;95.97;101708.31;5015377;28;20049;-77
2022/12/04 09:37:35;;;;;;;47.58;35.65;;;;;;;0.72;95.66;101713.44;5030533;28;20044;-77
2022/12/04 09:40:01;;;;;;;46.40;35.15;;;;;;;0.71;96.40;101707.41;5031802;28;20052;-77
2022/12/04 09:42:42;;;;;;;44.03;34.15;;;;;;;0.75;96.49;101703.03;5029999;28;20029;-77
2022/12/04 09:45:15;;;;;;;47.22;35.55;;;;;;;0.76;96.15;101708.16;5031230;28;20108;-77
2022/12/04 09:47:47;;;;;;;45.95;34.53;;;;;;;0.78;96.00;101703.81;5031318;28;20032;-76
2022/12/04 09:50:30;;;;;;;46.65;34.40;;;;;;;0.82;96.51;101704.63;5030793;28;20375;-77
2022/12/04 09:53:10;;;;;;;48.75;34.30;;;;;;;0.84;95.84;101708.03;5025368;28;20037;-77
2022/12/04 09:55:53;;;;;;;46.95;34.95;;;;;;;0.86;95.92;101708.88;5015181;28;20526;-77
2022/12/04 09:58:39;;;;;;;45.75;34.03;;;;;;;0.89;95.56;101711.41;5013366;28;20382;-77
2022/12/04 10:01:05;;;;;;;43.03;32.10;;;;;;;0.81;94.77;101718.47;5031466;28;20103;-77
2022/12/04 10:03:31;;;;;;;38.17;30.23;;;;;;;0.77;94.23;101716.78;5030399;28;20025;-77
2022/12/04 10:06:13;;;;;;;40.90;30.48;;;;;;;0.75;94.14;101718.56;5013865;28;20565;-77
2022/12/04 10:08:41;;;;;;;31.75;11.93;;;;;;;0.78;94.35;101709.00;5011890;28;20298;-77
2022/12/04 10:11:20;;;;;;;37.35;29.52;;;;;;;0.67;94.21;101715.28;5030097;28;20065;-79
2022/12/04 10:13:55;;;;;;;39.28;30.15;;;;;;;0.64;94.27;101713.59;5013003;28;20042;-79
2022/12/04 10:16:34;;;;;;;41.53;30.02;;;;;;;0.61;93.84;101713.66;5030050;28;20116;-78
2022/12/04 10:19:47;;;;;;;41.95;31.23;;;;;;;0.61;94.52;101696.38;5031003;28;20026;-78
2022/12/04 10:22:21;;;;;;;40.65;30.60;;;;;;;0.58;94.89;101699.03;5008584;28;20109;-76
2022/12/04 10:24:51;;;;;;;39.05;30.63;;;;;;;0.58;94.61;101699.03;5006823;28;20036;-76
2022/12/04 10:27:22;;;;;;;37.50;28.85;;;;;;;0.60;94.45;101692.09;5013342;28;20020;-79
2022/12/04 10:29:52;;;;;;;42.00;30.50;;;;;;;0.59;95.01;101692.97;5031398;28;20033;-78
2022/12/04 10:32:27;;;;;;;38.88;29.08;;;;;;;0.60;95.04;101697.28;5030715;28;20107;-78
2022/12/04 10:34:56;;;;;;;38.20;29.23;;;;;;;0.60;95.18;101699.84;5031174;28;20493;-79
2022/12/04 10:37:23;;;;;;;40.55;29.38;;;;;;;0.62;94.99;101713.63;5030162;28;20032;-78
2022/12/04 10:39:54;;;;;;;38.67;28.85;;;;;;;0.61;94.43;101714.50;5031469;28;20472;-77
2022/12/04 10:42:41;;;;;;;39.70;29.80;;;;;;;0.63;95.67;101712.75;5018756;28;20032;-79
2022/12/04 10:45:06;;;;;;;39.97;29.65;;;;;;;0.60;95.65;101717.97;5010918;28;20054;-79
2022/12/04 10:47:33;;;;;;;40.63;29.90;;;;;;;0.63;94.87;101712.75;5011400;28;20061;-78
2022/12/04 10:50:03;;;;;;;39.38;29.33;;;;;;;0.59;94.86;101711.09;5003323;28;20116;-78
2022/12/04 10:52:28;;;;;;;39.75;30.65;;;;;;;0.56;95.01;101703.38;5029432;28;20044;-78
2022/12/04 10:54:58;;;;;;;41.92;30.67;;;;;;;0.55;95.01;101706.00;5030809;28;20057;-77
2022/12/04 10:57:38;;;;;;;39.67;29.80;;;;;;;0.54;94.76;101712.94;5010809;28;20029;-77
2022/12/04 11:00:23;;;;;;;40.22;30.27;;;;;;;0.55;95.43;101695.66;5011648;28;20799;-77
2022/12/04 11:02:49;;;;;;;40.42;30.55;;;;;;;0.51;95.27;101691.41;5030687;28;20026;-77
2022/12/04 11:05:25;;;;;;;37.83;29.05;;;;;;;0.48;95.50;101689.75;5012095;28;20021;-78
2022/12/04 11:07:51;;;;;;;42.20;31.23;;;;;;;0.47;95.61;101690.63;5011332;28;20486;-77
2022/12/04 11:10:30;;;;;;;38.42;30.52;;;;;;;0.47;95.49;101688.03;5029813;28;20099;-79
2022/12/04 11:12:59;;;;;;;39.55;30.58;;;;;;;0.47;95.39;101688.03;5009952;28;20038;-79
2022/12/04 11:15:25;;;;;;;42.65;31.15;;;;;;;0.48;95.28;101678.53;5027903;28;20054;-79
2022/12/04 11:17:54;;;;;;;38.20;30.33;;;;;;;0.45;95.69;101686.38;5018162;28;20075;-78
2022/12/04 11:20:22;;;;;;;39.33;30.15;;;;;;;0.45;95.70;101669.09;5027991;28;20069;-80
2022/12/04 11:22:56;;;;;;;38.53;30.10;;;;;;;0.47;96.18;101672.50;5029627;28;20013;-78
2022/12/04 11:25:24;;;;;;;40.03;30.52;;;;;;;0.45;95.97;101669.09;5029513;28;20116;-78
2022/12/04 11:27:53;;;;;;;39.47;30.08;;;;;;;0.45;95.72;101668.25;5029659;28;20033;-78
2022/12/04 11:30:30;;;;;;;39.70;29.73;;;;;;;0.45;96.00;101663.91;5008760;28;20022;-79
2022/12/04 11:32:57;;;;;;;41.85;30.70;;;;;;;0.44;96.44;101659.63;4996813;28;20059;-78
2022/12/04 11:35:24;;;;;;;39.42;30.50;;;;;;;0.46;96.10;101660.44;5028695;28;20044;-79
2022/12/04 11:38:08;;;;;;;36.95;29.42;;;;;;;0.47;96.51;101664.75;5029789;28;20040;-78
2022/12/04 11:40:35;;;;;;;39.13;30.20;;;;;;;0.47;95.71;101666.47;5029491;28;20026;-79